createdAt,value
2023-01-19T00:00:21.305Z,27.17
2023-01-19T00:01:21.233Z,27.13
2023-01-19T00:02:21.330Z,27.15
2023-01-19T00:03:21.216Z,27.16
2023-01-19T00:04:21.206Z,27.13
2023-01-19T00:05:21.209Z,27.13
2023-01-19T00:06:21.321Z,27.09
2023-01-19T00:07:21.181Z,27.13
2023-01-19T00:54:41.863Z,28.02
2023-01-19T00:55:42.768Z,27.29
2023-01-19T00:56:42.800Z,27.18
2023-01-19T00:57:42.777Z,27.10
2023-01-19T00:58:42.751Z,27.07
2023-01-19T00:59:42.740Z,27.02
2023-01-19T01:00:42.769Z,26.98
2023-01-19T01:01:45.916Z,26.93
2023-01-19T01:02:43.042Z,26.97
2023-01-19T01:03:42.696Z,26.92
2023-01-19T01:04:42.695Z,26.92
2023-01-19T01:05:42.707Z,26.88
2023-01-19T01:06:42.677Z,26.89
2023-01-19T01:07:42.664Z,26.86
2023-01-19T01:08:42.653Z,26.87
2023-01-19T01:09:42.678Z,26.87
2023-01-19T01:10:42.667Z,26.86
2023-01-19T01:11:42.635Z,26.83
2023-01-19T01:12:54.911Z,26.87
2023-01-19T01:13:42.614Z,26.84
2023-01-19T01:14:42.642Z,26.87
2023-01-19T01:15:42.590Z,26.85
2023-01-19T01:16:42.671Z,26.87
2023-01-19T01:17:42.604Z,26.85
2023-01-19T01:18:42.565Z,26.83
2023-01-19T01:19:42.561Z,26.82
2023-01-19T01:20:42.549Z,26.82
2023-01-19T01:21:42.538Z,26.80
2023-01-19T01:22:42.573Z,26.79
2023-01-19T01:23:42.523Z,26.80
2023-01-19T01:24:42.538Z,26.76
2023-01-19T01:25:42.509Z,26.77
2023-01-19T01:26:42.525Z,26.80
2023-01-19T01:27:42.567Z,26.79
2023-01-19T01:28:42.479Z,26.77
2023-01-19T01:29:42.472Z,26.77
2023-01-19T01:30:42.459Z,26.77
2023-01-19T01:31:42.551Z,26.77
2023-01-19T01:32:42.439Z,26.75
2023-01-19T01:33:42.439Z,26.76
2023-01-19T01:34:42.423Z,26.76
2023-01-19T01:35:42.413Z,26.74
2023-01-19T01:36:42.398Z,26.73
2023-01-19T01:37:42.426Z,26.74
2023-01-19T01:38:42.387Z,26.75
2023-01-19T01:39:42.380Z,26.71
2023-01-19T01:40:42.368Z,26.73
2023-01-19T01:41:42.364Z,26.72
2023-01-19T01:42:42.441Z,26.72
2023-01-19T01:43:42.342Z,26.73
2023-01-19T01:44:42.334Z,26.73
2023-01-19T01:45:42.345Z,26.72
2023-01-19T01:46:42.378Z,26.71
2023-01-19T01:47:42.303Z,26.68
2023-01-19T01:48:42.299Z,26.69
2023-01-19T01:49:42.286Z,26.68
2023-01-19T01:50:42.289Z,26.71
2023-01-19T01:51:42.265Z,26.70
2023-01-19T01:52:42.260Z,26.67
2023-01-19T01:53:42.280Z,26.67
2023-01-19T01:54:42.246Z,26.66
2023-01-19T01:55:42.238Z,26.64
2023-01-19T01:56:42.231Z,26.67
2023-01-19T01:57:42.231Z,26.64
2023-01-19T01:58:42.239Z,26.66
2023-01-19T01:59:42.193Z,26.64
2023-01-19T02:00:42.185Z,26.63
2023-01-19T02:01:42.411Z,26.66
2023-01-19T02:02:42.172Z,26.66
2023-01-19T02:03:42.393Z,26.64
2023-01-19T02:04:42.150Z,26.64
2023-01-19T02:05:42.143Z,26.63
2023-01-19T02:06:42.131Z,26.64
2023-01-19T02:07:42.124Z,26.65
2023-01-19T02:08:42.119Z,26.62
2023-01-19T02:09:42.103Z,26.64
2023-01-19T02:10:42.099Z,26.63
2023-01-19T02:11:42.087Z,26.62
2023-01-19T02:12:42.108Z,26.63
2023-01-19T02:13:42.067Z,26.60
2023-01-19T02:14:42.085Z,26.58
2023-01-19T02:15:42.051Z,26.60
2023-01-19T02:16:42.062Z,26.58
2023-01-19T02:17:42.041Z,26.56
2023-01-19T02:18:42.025Z,26.56
2023-01-19T02:19:42.018Z,26.57
2023-01-19T02:20:42.040Z,26.55
2023-01-19T02:21:41.993Z,26.57
2023-01-19T02:22:41.994Z,26.57
2023-01-19T02:23:41.993Z,26.52
2023-01-19T02:24:41.971Z,26.56
2023-01-19T02:25:41.969Z,26.53
2023-01-19T02:26:41.955Z,26.54
2023-01-19T02:27:41.941Z,26.56
2023-01-19T02:28:41.935Z,26.55
2023-01-19T02:29:41.926Z,26.54
2023-01-19T02:30:42.037Z,26.53
2023-01-19T02:31:41.902Z,26.50
2023-01-19T02:32:41.899Z,26.51
2023-01-19T02:33:41.886Z,26.52
2023-01-19T02:34:41.897Z,26.52
2023-01-19T02:35:41.867Z,26.51
2023-01-19T02:36:41.861Z,26.51
2023-01-19T02:37:41.850Z,26.51
2023-01-19T02:38:41.846Z,26.53
2023-01-19T02:39:41.859Z,26.51
2023-01-19T02:40:41.834Z,26.53
2023-01-19T02:41:41.818Z,26.51
2023-01-19T02:42:41.809Z,26.51
2023-01-19T02:43:41.797Z,26.53
2023-01-19T02:44:41.786Z,26.52
2023-01-19T02:45:41.817Z,26.50
2023-01-19T02:46:41.801Z,26.48
2023-01-19T02:47:41.760Z,26.45
2023-01-19T02:48:41.754Z,26.45
2023-01-19T02:49:41.744Z,26.45
2023-01-19T02:50:41.744Z,26.47
2023-01-19T02:51:41.720Z,26.42
2023-01-19T02:52:41.712Z,26.46
2023-01-19T02:53:41.712Z,26.46
2023-01-19T02:54:41.696Z,26.44
2023-01-19T02:55:41.688Z,26.41
2023-01-19T02:56:41.676Z,26.40
2023-01-19T02:57:41.669Z,26.44
2023-01-19T02:58:41.667Z,26.39
2023-01-19T02:59:41.648Z,26.40
2023-01-19T03:00:41.645Z,26.40
2023-01-19T03:01:41.817Z,26.38
2023-01-19T03:02:41.752Z,26.39
2023-01-19T03:03:41.664Z,26.37
2023-01-19T03:04:41.610Z,26.38
2023-01-19T03:05:41.593Z,26.37
2023-01-19T03:06:41.586Z,26.38
2023-01-19T03:07:41.589Z,26.36
2023-01-19T03:08:41.789Z,26.37
2023-01-19T03:09:41.568Z,26.34
2023-01-19T03:10:41.551Z,26.36
2023-01-19T03:11:41.540Z,26.33
2023-01-19T03:12:41.542Z,26.35
2023-01-19T03:13:41.521Z,26.34
2023-01-19T03:14:41.522Z,26.32
2023-01-19T03:15:41.544Z,26.32
2023-01-19T03:16:41.530Z,26.32
2023-01-19T03:17:41.492Z,26.35
2023-01-19T03:18:41.505Z,26.32
2023-01-19T03:19:41.467Z,26.30
2023-01-19T03:20:41.459Z,26.28
2023-01-19T03:21:41.449Z,26.30
2023-01-19T03:22:41.449Z,26.31
2023-01-19T03:23:41.448Z,26.23
2023-01-19T03:24:41.427Z,26.28
2023-01-19T03:25:41.413Z,26.26
2023-01-19T03:26:41.409Z,26.26
2023-01-19T03:27:41.432Z,26.25
2023-01-19T03:28:41.390Z,26.27
2023-01-19T03:29:41.383Z,26.25
2023-01-19T03:30:41.401Z,26.24
2023-01-19T03:31:41.358Z,26.26
2023-01-19T03:32:41.412Z,26.23
2023-01-19T03:33:41.346Z,26.23
2023-01-19T03:34:41.359Z,26.27
2023-01-19T03:35:41.322Z,26.25
2023-01-19T03:36:41.315Z,26.29
2023-01-19T03:37:41.316Z,26.27
2023-01-19T03:38:41.309Z,26.27
2023-01-19T03:39:41.315Z,26.28
2023-01-19T03:40:41.290Z,26.27
2023-01-19T03:41:41.267Z,26.23
2023-01-19T03:42:41.263Z,26.23
2023-01-19T03:43:41.249Z,26.21
2023-01-19T03:44:41.242Z,26.23
2023-01-19T03:45:41.246Z,26.22
2023-01-19T03:46:41.229Z,26.21
2023-01-19T03:47:41.217Z,26.19
2023-01-19T03:48:41.215Z,26.09
2023-01-19T03:49:41.198Z,26.15
2023-01-19T03:50:41.208Z,26.12
2023-01-19T03:51:41.191Z,26.16
2023-01-19T03:52:41.168Z,26.11
2023-01-19T03:53:41.160Z,26.17
2023-01-19T03:54:41.172Z,26.17
2023-01-19T03:55:41.164Z,26.14
2023-01-19T03:56:40.136Z,26.16
2023-01-19T03:57:41.124Z,26.16
2023-01-19T03:58:41.113Z,26.15
2023-01-19T03:59:41.109Z,26.13
2023-01-19T04:00:41.102Z,26.16
2023-01-19T04:01:41.230Z,26.16
2023-01-19T04:02:41.155Z,26.19
2023-01-19T04:03:41.081Z,26.18
2023-01-19T04:04:41.059Z,26.19
2023-01-19T04:05:41.079Z,26.17
2023-01-19T04:06:41.085Z,26.16
2023-01-19T04:07:41.071Z,26.16
2023-01-19T04:08:41.028Z,26.18
2023-01-19T04:09:41.011Z,26.17
2023-01-19T04:10:41.004Z,26.16
2023-01-19T04:11:41.001Z,26.17
2023-01-19T04:12:41.007Z,26.15
2023-01-19T04:13:40.993Z,26.12
2023-01-19T04:14:40.968Z,26.16
2023-01-19T04:15:40.987Z,26.17
2023-01-19T04:16:40.950Z,26.13
2023-01-19T04:17:40.951Z,26.15
2023-01-19T04:18:40.939Z,26.13
2023-01-19T04:19:40.930Z,26.16
2023-01-19T04:20:40.939Z,26.15
2023-01-19T04:21:40.902Z,26.12
2023-01-19T04:22:40.944Z,26.13
2023-01-19T04:23:40.892Z,26.12
2023-01-19T04:24:40.883Z,26.12
2023-01-19T04:25:40.877Z,26.10
2023-01-19T04:26:40.865Z,26.10
2023-01-19T04:27:40.858Z,26.09
2023-01-19T04:28:40.843Z,26.10
2023-01-19T04:29:40.842Z,26.11
2023-01-19T04:30:40.831Z,26.10
2023-01-19T04:31:41.419Z,26.07
2023-01-19T04:32:40.811Z,26.07
2023-01-19T04:33:40.799Z,26.08
2023-01-19T04:34:40.800Z,26.07
2023-01-19T04:35:40.782Z,26.10
2023-01-19T04:36:40.765Z,26.08
2023-01-19T04:37:40.779Z,26.06
2023-01-19T04:38:40.789Z,26.06
2023-01-19T04:39:40.749Z,26.07
2023-01-19T04:40:40.742Z,26.07
2023-01-19T04:41:40.736Z,26.08
2023-01-19T04:42:40.712Z,26.04
2023-01-19T04:43:40.709Z,26.04
2023-01-19T04:44:40.712Z,26.02
2023-01-19T04:45:40.683Z,26.04
2023-01-19T04:46:40.717Z,26.04
2023-01-19T04:47:40.667Z,26.05
2023-01-19T04:48:42.055Z,26.03
2023-01-19T04:49:40.775Z,26.03
2023-01-19T04:50:40.705Z,26.02
2023-01-19T04:51:41.493Z,26.01
2023-01-19T04:52:40.682Z,26.00
2023-01-19T04:53:40.690Z,26.00
2023-01-19T04:54:40.697Z,25.97
2023-01-19T04:55:40.698Z,25.99
2023-01-19T04:56:40.655Z,25.98
2023-01-19T04:57:40.647Z,26.00
2023-01-19T04:58:40.628Z,26.00
2023-01-19T04:59:40.618Z,26.02
2023-01-19T05:00:41.427Z,26.03
2023-01-19T05:01:40.635Z,26.00
2023-01-19T05:02:40.617Z,25.99
2023-01-19T05:03:40.587Z,25.97
2023-01-19T05:04:40.574Z,25.96
2023-01-19T05:05:40.569Z,25.96
2023-01-19T05:06:40.550Z,25.95
2023-01-19T05:07:40.543Z,25.98
2023-01-19T05:08:39.556Z,25.96
2023-01-19T05:09:40.528Z,25.96
2023-01-19T05:10:40.595Z,25.97
2023-01-19T05:11:40.518Z,25.96
2023-01-19T05:12:40.510Z,25.95
2023-01-19T05:13:40.490Z,25.96
2023-01-19T05:14:40.480Z,25.94
2023-01-19T05:15:40.475Z,25.94
2023-01-19T05:16:40.465Z,25.90
2023-01-19T05:17:40.464Z,25.93
2023-01-19T05:18:40.445Z,25.93
2023-01-19T05:19:40.443Z,25.93
2023-01-19T05:20:40.462Z,25.94
2023-01-19T05:21:40.416Z,25.93
2023-01-19T05:22:40.411Z,25.92
2023-01-19T05:23:40.399Z,25.90
2023-01-19T05:24:40.393Z,25.92
2023-01-19T05:25:40.400Z,25.92
2023-01-19T05:26:40.399Z,25.95
2023-01-19T05:27:40.369Z,25.93
2023-01-19T05:28:40.352Z,25.94
2023-01-19T05:29:40.348Z,25.94
2023-01-19T05:30:40.395Z,25.93
2023-01-19T05:31:40.370Z,25.92
2023-01-19T05:32:40.320Z,25.87
2023-01-19T05:33:40.309Z,25.90
2023-01-19T05:34:40.313Z,25.88
2023-01-19T05:35:40.301Z,25.91
2023-01-19T05:36:40.286Z,25.86
2023-01-19T05:37:40.269Z,25.86
2023-01-19T05:38:40.941Z,25.88
2023-01-19T05:39:40.292Z,25.91
2023-01-19T05:40:40.258Z,25.86
2023-01-19T05:41:40.246Z,25.86
2023-01-19T05:42:40.310Z,25.86
2023-01-19T05:43:40.217Z,25.85
2023-01-19T05:44:40.212Z,25.85
2023-01-19T05:45:40.198Z,25.84
2023-01-19T05:46:40.228Z,25.86
2023-01-19T05:47:40.237Z,25.85
2023-01-19T05:48:40.185Z,25.86
2023-01-19T05:49:40.168Z,25.85
2023-01-19T05:50:40.163Z,25.86
2023-01-19T05:51:40.147Z,25.83
2023-01-19T05:52:40.156Z,25.82
2023-01-19T05:53:40.139Z,25.84
2023-01-19T05:54:40.119Z,25.85
2023-01-19T05:55:40.108Z,25.82
2023-01-19T05:56:40.107Z,25.84
2023-01-19T05:57:40.094Z,25.84
2023-01-19T05:58:40.189Z,25.83
2023-01-19T05:59:40.078Z,25.81
2023-01-19T06:00:40.067Z,25.80
2023-01-19T06:01:40.522Z,25.82
2023-01-19T06:02:40.070Z,25.81
2023-01-19T06:03:40.064Z,25.80
2023-01-19T06:04:40.034Z,25.80
2023-01-19T06:05:40.015Z,25.77
2023-01-19T06:06:40.009Z,25.78
2023-01-19T06:07:40.012Z,25.80
2023-01-19T06:08:39.999Z,25.79
2023-01-19T06:09:39.985Z,25.78
2023-01-19T06:10:39.969Z,25.80
2023-01-19T06:11:39.961Z,25.78
2023-01-19T06:12:39.950Z,25.79
2023-01-19T06:13:41.394Z,25.78
2023-01-19T06:14:39.973Z,25.79
2023-01-19T06:15:39.932Z,25.77
2023-01-19T06:16:39.968Z,25.77
2023-01-19T06:17:39.906Z,25.76
2023-01-19T06:18:39.970Z,25.77
2023-01-19T06:19:39.890Z,25.78
2023-01-19T06:20:39.882Z,25.85
2023-01-19T06:21:39.888Z,25.83
2023-01-19T06:22:39.874Z,25.88
2023-01-19T06:23:39.964Z,25.91
2023-01-19T06:24:39.845Z,25.94
2023-01-19T06:25:39.836Z,25.97
2023-01-19T06:26:39.845Z,25.92
2023-01-19T06:27:39.819Z,26.00
2023-01-19T06:28:39.962Z,25.99
2023-01-19T06:29:39.797Z,26.06
2023-01-19T06:30:39.860Z,26.10
2023-01-19T06:31:39.836Z,26.13
2023-01-19T06:32:39.772Z,26.13
2023-01-19T06:33:39.762Z,26.09
2023-01-19T06:34:39.750Z,26.14
2023-01-19T06:35:39.736Z,26.12
2023-01-19T06:36:39.738Z,26.29
2023-01-19T06:37:39.986Z,26.35
2023-01-19T06:38:39.715Z,26.45
2023-01-19T06:39:39.975Z,26.49
2023-01-19T06:40:39.689Z,26.43
2023-01-19T06:41:39.701Z,26.42
2023-01-19T06:42:39.739Z,26.39
2023-01-19T06:43:39.665Z,26.38
2023-01-19T06:44:39.968Z,26.45
2023-01-19T06:45:39.696Z,26.53
2023-01-19T06:46:39.668Z,26.58
2023-01-19T06:47:39.983Z,26.59
2023-01-19T06:48:39.620Z,26.67
2023-01-19T06:49:39.988Z,26.61
2023-01-19T06:50:39.604Z,26.74
2023-01-19T06:51:39.593Z,26.75
2023-01-19T06:52:39.605Z,26.86
2023-01-19T06:53:42.797Z,26.82
2023-01-19T06:54:39.992Z,26.86
2023-01-19T06:55:39.554Z,26.94
2023-01-19T06:56:39.554Z,27.09
2023-01-19T06:57:39.563Z,27.24
2023-01-19T06:58:39.568Z,27.32
2023-01-19T07:01:39.705Z,27.73
2023-01-19T07:03:11.396Z,27.81
2023-01-19T07:03:39.974Z,27.89
2023-01-19T07:04:39.472Z,28.03
2023-01-19T07:05:39.461Z,28.20
2023-01-19T07:06:39.453Z,28.31
2023-01-19T07:08:39.433Z,28.49
2023-01-19T07:09:39.430Z,28.52
2023-01-19T07:11:27.173Z,28.57
2023-01-19T07:11:42.634Z,28.59
2023-01-19T07:12:39.517Z,28.79
2023-01-19T07:13:39.447Z,28.90
2023-01-19T07:14:39.392Z,28.83
2023-01-19T07:15:39.391Z,28.95
2023-01-19T07:16:39.364Z,29.09
2023-01-19T07:17:39.500Z,29.12
2023-01-19T07:18:40.356Z,29.30
2023-01-19T07:19:39.338Z,29.30
2023-01-19T07:20:39.326Z,29.40
2023-01-19T07:21:39.318Z,29.50
2023-01-19T07:22:39.487Z,29.63
2023-01-19T07:23:39.314Z,29.65
2023-01-19T07:24:39.283Z,29.70
2023-01-19T07:25:39.291Z,29.74
2023-01-19T07:26:39.265Z,29.77
2023-01-19T07:27:39.657Z,29.85
2023-01-19T07:28:39.305Z,29.43
2023-01-19T07:29:39.315Z,23.87
2023-01-19T07:30:39.426Z,23.86
2023-01-19T07:31:39.730Z,23.71
2023-01-19T07:32:39.267Z,23.97
2023-01-19T07:33:39.210Z,24.03
2023-01-19T07:35:39.239Z,24.70
2023-01-19T07:36:39.214Z,25.02
2023-01-19T07:37:39.208Z,25.55
2023-01-19T07:38:39.604Z,25.55
2023-01-19T07:39:39.176Z,25.97
2023-01-19T07:40:39.219Z,25.99
2023-01-19T07:42:41.022Z,27.86
2023-01-19T07:43:39.189Z,28.10
2023-01-19T07:44:39.171Z,28.20
2023-01-19T07:45:39.762Z,28.34
2023-01-19T07:46:39.130Z,28.94
2023-01-19T07:47:39.137Z,29.11
2023-01-19T07:48:39.098Z,29.34
2023-01-19T07:49:39.092Z,29.44
2023-01-19T07:50:39.560Z,29.30
2023-01-19T07:51:41.113Z,29.05
2023-01-19T07:52:39.088Z,29.52
2023-01-19T07:53:42.756Z,29.41
2023-01-19T07:54:40.057Z,29.50
2023-01-19T07:55:39.152Z,29.33
2023-01-19T07:56:40.014Z,29.30
2023-01-19T07:57:39.019Z,29.34
2023-01-19T07:58:39.056Z,29.21
2023-01-19T07:59:40.230Z,29.13
2023-01-19T08:00:38.987Z,29.06
2023-01-19T08:01:40.144Z,29.14
2023-01-19T08:02:38.973Z,29.12
2023-01-19T08:03:39.031Z,29.15
2023-01-19T08:04:39.050Z,29.20
2023-01-19T08:05:39.000Z,29.17
2023-01-19T08:06:38.989Z,29.17
2023-01-19T08:07:38.953Z,29.17
2023-01-19T08:08:39.922Z,29.25
2023-01-19T08:09:38.902Z,29.21
2023-01-19T08:10:38.999Z,29.25
2023-01-19T08:11:38.893Z,29.33
2023-01-19T08:12:39.036Z,29.36
2023-01-19T08:13:38.874Z,29.38
2023-01-19T08:14:38.845Z,29.44
2023-01-19T08:15:39.899Z,29.50
2023-01-19T08:16:38.921Z,29.59
2023-01-19T08:17:39.040Z,29.67
2023-01-19T08:18:38.902Z,29.69
2023-01-19T08:19:41.515Z,29.77
2023-01-19T08:20:38.890Z,29.80
2023-01-19T08:21:39.131Z,29.88
2023-01-19T08:23:39.081Z,30.05
2023-01-19T08:24:38.862Z,30.10
2023-01-19T08:25:38.837Z,30.21
2023-01-19T08:26:39.849Z,30.21
2023-01-19T08:27:38.807Z,30.23
2023-01-19T08:28:39.040Z,30.33
2023-01-19T08:29:39.738Z,30.22
2023-01-19T08:30:38.902Z,27.87
2023-01-19T08:31:38.990Z,26.81
2023-01-19T08:32:38.783Z,26.52
2023-01-19T08:33:39.047Z,27.29
2023-01-19T08:35:39.760Z,29.36
2023-01-19T08:36:39.739Z,29.57
2023-01-19T08:37:39.714Z,29.64
2023-01-19T08:38:39.058Z,29.72
2023-01-19T08:39:38.717Z,29.78
2023-01-19T08:40:38.848Z,29.86
2023-01-19T08:41:38.729Z,29.87
2023-01-19T08:42:38.705Z,29.91
2023-01-19T08:43:39.053Z,29.96
2023-01-19T08:44:43.894Z,30.02
2023-01-19T08:45:38.671Z,30.09
2023-01-19T08:46:38.674Z,30.06
2023-01-19T08:47:38.743Z,30.13
2023-01-19T08:48:40.019Z,30.18
2023-01-19T08:49:39.058Z,30.23
2023-01-19T08:50:38.693Z,30.31
2023-01-19T08:51:38.690Z,30.38
2023-01-19T08:52:38.655Z,30.37
2023-01-19T08:53:38.625Z,30.48
2023-01-19T08:54:39.075Z,30.54
2023-01-19T08:55:38.633Z,30.56
2023-01-19T08:56:38.634Z,30.64
2023-01-19T08:57:38.612Z,30.72
2023-01-19T08:58:39.574Z,30.71
2023-01-19T08:59:39.017Z,30.80
2023-01-19T09:00:38.550Z,30.95
2023-01-19T09:01:38.723Z,30.99
2023-01-19T09:02:39.153Z,30.99
2023-01-19T09:03:38.548Z,31.06
2023-01-19T09:04:39.041Z,31.09
2023-01-19T09:05:38.518Z,31.17
2023-01-19T09:06:38.499Z,31.20
2023-01-19T09:07:38.502Z,31.25
2023-01-19T09:08:38.491Z,31.30
2023-01-19T09:09:38.520Z,31.39
2023-01-19T09:10:38.495Z,31.55
2023-01-19T09:11:38.469Z,31.54
2023-01-19T09:12:38.524Z,31.66
2023-01-19T09:13:38.428Z,31.65
2023-01-19T09:14:38.528Z,31.66
2023-01-19T09:15:38.416Z,31.75
2023-01-19T09:16:38.411Z,31.76
2023-01-19T09:17:38.431Z,31.84
2023-01-19T09:18:38.390Z,31.90
2023-01-19T09:19:38.382Z,32.04
2023-01-19T09:20:38.372Z,32.03
2023-01-19T09:21:38.362Z,32.07
2023-01-19T09:22:38.563Z,32.18
2023-01-19T09:23:38.351Z,32.22
2023-01-19T09:24:38.338Z,32.27
2023-01-19T09:25:38.340Z,32.38
2023-01-19T09:26:38.349Z,32.38
2023-01-19T09:27:38.533Z,32.53
2023-01-19T09:28:38.307Z,32.56
2023-01-19T09:29:38.287Z,32.67
2023-01-19T09:30:38.294Z,32.71
2023-01-19T09:31:38.317Z,32.98
2023-01-19T09:32:38.530Z,33.06
2023-01-19T09:33:38.255Z,32.93
2023-01-19T09:34:38.241Z,33.23
2023-01-19T09:35:38.533Z,33.04
2023-01-19T09:36:38.227Z,33.03
2023-01-19T09:37:38.250Z,33.06
2023-01-19T09:38:38.215Z,33.03
2023-01-19T09:39:38.221Z,33.19
2023-01-19T09:40:41.925Z,33.23
2023-01-19T09:41:39.196Z,33.18
2023-01-19T09:42:38.227Z,33.15
2023-01-19T09:43:38.163Z,33.11
2023-01-19T09:44:38.191Z,33.17
2023-01-19T09:45:39.054Z,33.15
2023-01-19T09:46:39.630Z,33.11
2023-01-19T09:47:38.128Z,33.12
2023-01-19T09:48:38.121Z,33.02
2023-01-19T09:49:38.129Z,32.89
2023-01-19T09:50:38.098Z,32.83
2023-01-19T09:51:38.534Z,32.80
2023-01-19T09:52:38.540Z,32.72
2023-01-19T09:53:38.074Z,32.69
2023-01-19T09:54:38.073Z,32.64
2023-01-19T09:55:38.061Z,32.56
2023-01-19T09:56:38.041Z,32.49
2023-01-19T09:57:38.035Z,32.43
2023-01-19T09:58:38.099Z,32.36
2023-01-19T09:59:38.021Z,32.31
2023-01-19T10:00:38.159Z,32.31
2023-01-19T10:01:38.068Z,32.26
2023-01-19T10:02:38.021Z,32.19
2023-01-19T10:03:37.981Z,32.14
2023-01-19T10:04:37.967Z,32.07
2023-01-19T10:05:38.051Z,32.04
2023-01-19T10:06:38.051Z,32.06
2023-01-19T10:07:37.943Z,31.99
2023-01-19T10:08:37.932Z,31.85
2023-01-19T10:09:37.923Z,31.83
2023-01-19T10:10:38.050Z,31.76
2023-01-19T10:11:51.308Z,31.71
2023-01-19T10:12:37.911Z,31.67
2023-01-19T10:13:37.886Z,31.62
2023-01-19T10:14:37.909Z,31.60
2023-01-19T10:15:37.873Z,31.54
2023-01-19T10:16:37.860Z,31.51
2023-01-19T10:17:37.856Z,31.45
2023-01-19T10:18:37.840Z,31.41
2023-01-19T10:19:37.824Z,31.36
2023-01-19T10:20:38.138Z,31.26
2023-01-19T10:21:37.835Z,31.27
2023-01-19T10:22:37.810Z,31.22
2023-01-19T10:23:37.795Z,31.18
2023-01-19T10:24:37.783Z,31.17
2023-01-19T10:25:37.809Z,31.13
2023-01-19T10:26:38.050Z,31.09
2023-01-19T10:27:37.815Z,31.05
2023-01-19T10:28:37.749Z,31.00
2023-01-19T10:29:37.743Z,30.95
2023-01-19T10:30:37.813Z,30.93
2023-01-19T10:31:38.199Z,30.88
2023-01-19T10:32:37.738Z,30.82
2023-01-19T10:33:37.717Z,30.81
2023-01-19T10:34:37.701Z,30.75
2023-01-19T10:35:37.688Z,30.74
2023-01-19T10:36:38.110Z,30.69
2023-01-19T10:37:37.734Z,30.62
2023-01-19T10:38:37.664Z,30.53
2023-01-19T10:39:38.922Z,30.53
2023-01-19T10:40:37.674Z,30.53
2023-01-19T10:41:38.074Z,30.47
2023-01-19T10:42:37.630Z,30.45
2023-01-19T10:43:37.645Z,30.39
2023-01-19T10:44:37.643Z,30.33
2023-01-19T10:45:37.621Z,30.34
2023-01-19T10:46:38.135Z,30.30
2023-01-19T10:47:37.633Z,30.26
2023-01-19T10:48:37.567Z,30.20
2023-01-19T10:49:37.633Z,30.20
2023-01-19T10:50:37.553Z,30.15
2023-01-19T10:51:37.543Z,30.14
2023-01-19T10:52:37.555Z,30.05
2023-01-19T10:53:37.588Z,30.07
2023-01-19T10:54:37.506Z,30.05
2023-01-19T10:55:37.572Z,30.02
2023-01-19T10:56:37.522Z,29.94
2023-01-19T10:57:37.487Z,30.00
2023-01-19T10:58:37.502Z,29.99
2023-01-19T10:59:37.608Z,29.90
2023-01-19T11:00:37.575Z,29.83
2023-01-19T11:01:38.094Z,29.82
2023-01-19T11:02:37.691Z,29.77
2023-01-19T11:03:37.508Z,29.80
2023-01-19T11:04:37.413Z,29.76
2023-01-19T11:05:37.399Z,29.73
2023-01-19T11:06:37.560Z,29.78
2023-01-19T11:07:37.390Z,29.73
2023-01-19T11:08:37.382Z,29.68
2023-01-19T11:09:37.368Z,29.66
2023-01-19T11:10:37.362Z,29.66
2023-01-19T11:11:37.567Z,29.55
2023-01-19T11:12:37.448Z,29.48
2023-01-19T11:13:37.474Z,29.50
2023-01-19T11:14:37.347Z,29.35
2023-01-19T11:15:37.325Z,29.40
2023-01-19T11:16:37.638Z,29.40
2023-01-19T11:17:37.307Z,29.31
2023-01-19T11:18:37.344Z,29.34
2023-01-19T11:19:37.284Z,29.39
2023-01-19T11:20:37.276Z,29.24
2023-01-19T11:21:37.566Z,29.23
2023-01-19T11:22:37.285Z,29.22
2023-01-19T11:23:37.237Z,29.23
2023-01-19T11:24:37.382Z,29.23
2023-01-19T11:25:37.216Z,29.16
2023-01-19T11:26:37.572Z,28.08
2023-01-19T11:27:37.595Z,27.94
2023-01-19T11:28:37.192Z,28.64
2023-01-19T11:29:37.211Z,28.70
2023-01-19T11:30:37.187Z,28.81
2023-01-19T11:31:37.585Z,29.01
2023-01-19T11:32:37.324Z,29.11
2023-01-19T11:33:37.155Z,29.19
2023-01-19T11:34:37.724Z,29.16
2023-01-19T11:35:37.414Z,29.26
2023-01-19T11:36:37.609Z,29.36
2023-01-19T11:37:37.105Z,29.36
2023-01-19T11:38:37.541Z,29.37
2023-01-19T11:39:37.503Z,29.44
2023-01-19T11:40:37.087Z,29.49
2023-01-19T11:41:37.112Z,29.53
2023-01-19T11:42:37.601Z,29.81
2023-01-19T11:43:48.554Z,29.88
2023-01-19T11:44:37.052Z,29.94
2023-01-19T11:45:37.186Z,30.09
2023-01-19T11:46:37.019Z,30.30
2023-01-19T11:47:37.037Z,30.34
2023-01-19T11:48:37.991Z,30.40
2023-01-19T11:49:36.996Z,30.41
2023-01-19T11:50:37.048Z,30.58
2023-01-19T11:51:37.215Z,30.64
2023-01-19T11:52:36.968Z,30.73
2023-01-19T11:53:36.955Z,30.83
2023-01-19T11:54:36.989Z,30.87
2023-01-19T11:55:36.947Z,30.84
2023-01-19T11:56:36.947Z,30.96
2023-01-19T11:57:36.919Z,31.13
2023-01-19T11:58:36.912Z,31.30
2023-01-19T11:59:36.901Z,31.36
2023-01-19T12:00:36.927Z,31.46
2023-01-19T12:01:36.911Z,31.41
2023-01-19T12:02:37.088Z,31.02
2023-01-19T12:03:36.935Z,30.32
2023-01-19T12:04:36.858Z,31.00
2023-01-19T12:05:36.863Z,31.20
2023-01-19T12:06:36.869Z,31.36
2023-01-19T12:07:37.146Z,31.51
2023-01-19T12:08:36.827Z,31.62
2023-01-19T12:09:36.813Z,31.62
2023-01-19T12:10:36.800Z,31.69
2023-01-19T12:11:36.796Z,31.69
2023-01-19T12:12:37.085Z,31.84
2023-01-19T12:13:36.769Z,31.94
2023-01-19T12:14:36.769Z,32.02
2023-01-19T12:15:36.750Z,31.98
2023-01-19T12:16:36.787Z,31.99
2023-01-19T12:17:37.095Z,31.89
2023-01-19T12:18:36.732Z,31.75
2023-01-19T12:19:36.714Z,29.32
2023-01-19T12:20:36.700Z,29.61
2023-01-19T12:21:37.118Z,29.62
2023-01-19T12:22:36.728Z,30.45
2023-01-19T12:23:36.679Z,31.66
2023-01-19T12:24:36.798Z,31.98
2023-01-19T12:25:36.668Z,32.28
2023-01-19T12:26:36.649Z,32.36
2023-01-19T12:27:36.658Z,32.42
2023-01-19T12:28:36.633Z,32.55
2023-01-19T12:29:36.621Z,32.48
2023-01-19T12:30:36.769Z,32.68
2023-01-19T12:31:36.762Z,32.66
2023-01-19T12:32:37.093Z,32.73
2023-01-19T12:33:36.584Z,32.92
2023-01-19T12:34:36.576Z,33.08
2023-01-19T12:35:36.572Z,33.24
2023-01-19T12:36:36.559Z,33.29
2023-01-19T12:37:36.615Z,33.30
2023-01-19T12:38:36.616Z,33.40
2023-01-19T12:39:36.536Z,33.40
2023-01-19T12:40:36.527Z,33.43
2023-01-19T12:41:36.539Z,33.58
2023-01-19T12:42:36.593Z,33.71
2023-01-19T12:43:36.637Z,33.82
2023-01-19T12:44:36.490Z,33.96
2023-01-19T12:45:36.479Z,33.95
2023-01-19T12:46:36.473Z,34.08
2023-01-19T12:47:36.468Z,34.07
2023-01-19T12:48:36.593Z,27.65
2023-01-19T12:49:36.448Z,27.00
2023-01-19T12:50:36.605Z,26.86
2023-01-19T12:51:36.425Z,26.70
2023-01-19T12:52:36.411Z,26.19
2023-01-19T12:53:36.423Z,25.63
2023-01-19T12:54:36.443Z,26.63
2023-01-19T12:55:36.399Z,26.21
2023-01-19T12:56:36.403Z,25.79
2023-01-19T12:57:36.393Z,25.42
2023-01-19T12:58:36.355Z,26.13
2023-01-19T12:59:36.376Z,25.23
2023-01-19T13:00:36.362Z,26.05
2023-01-19T13:01:36.442Z,25.73
2023-01-19T13:02:36.364Z,26.20
2023-01-19T13:03:36.612Z,25.55
2023-01-19T13:04:36.299Z,25.32
2023-01-19T13:05:36.291Z,27.24
2023-01-19T13:06:36.604Z,27.68
2023-01-19T13:07:36.277Z,27.32
2023-01-19T13:08:36.609Z,27.83
2023-01-19T13:09:36.262Z,27.69
2023-01-19T13:10:36.276Z,28.08
2023-01-19T13:11:36.233Z,29.25
2023-01-19T13:12:36.229Z,29.90
2023-01-19T13:13:36.749Z,30.37
2023-01-19T13:14:36.601Z,30.37
2023-01-19T13:15:36.378Z,30.35
2023-01-19T13:16:36.620Z,30.34
2023-01-19T13:17:36.184Z,30.34
2023-01-19T13:18:36.608Z,30.38
2023-01-19T13:19:36.519Z,30.57
2023-01-19T13:20:36.543Z,30.64
2023-01-19T13:21:36.146Z,30.79
2023-01-19T13:22:36.137Z,30.78
2023-01-19T13:23:36.126Z,30.91
2023-01-19T13:24:36.119Z,30.98
2023-01-19T13:25:36.142Z,31.01
2023-01-19T13:26:36.198Z,31.09
2023-01-19T13:27:36.088Z,31.11
2023-01-19T13:28:36.075Z,31.25
2023-01-19T13:29:36.088Z,31.29
2023-01-19T13:30:36.149Z,31.33
2023-01-19T13:31:36.662Z,31.42
2023-01-19T13:32:36.035Z,31.52
2023-01-19T13:33:36.033Z,31.67
2023-01-19T13:34:36.024Z,31.72
2023-01-19T13:35:36.023Z,31.81
2023-01-19T13:36:36.015Z,31.92
2023-01-19T13:37:51.602Z,31.90
2023-01-19T13:38:35.996Z,31.84
2023-01-19T13:39:35.988Z,32.10
2023-01-19T13:40:35.962Z,32.19
2023-01-19T13:41:35.966Z,32.32
2023-01-19T13:42:35.982Z,32.32
2023-01-19T13:43:35.960Z,32.42
2023-01-19T13:44:35.931Z,32.55
2023-01-19T13:45:35.919Z,32.61